sensor_id;sensor_type;location;lat;lon;timestamp;P1;durP1;ratioP1;P2;durP2;ratioP2
16612;SDS011;8419;52.358;9.752;2022-10-24T00:01:06;4.70;;;1.55;;
16612;SDS011;8419;52.358;9.752;2022-10-24T00:03:53;3.28;;;1.40;;
16612;SDS011;8419;52.358;9.752;2022-10-24T00:06:39;5.93;;;1.35;;
16612;SDS011;8419;52.358;9.752;2022-10-24T00:09:24;2.95;;;1.58;;
16612;SDS011;8419;52.358;9.752;2022-10-24T00:12:10;5.85;;;1.20;;
16612;SDS011;8419;52.358;9.752;2022-10-24T00:14:56;3.65;;;1.83;;
16612;SDS011;8419;52.358;9.752;2022-10-24T00:17:41;3.70;;;1.50;;
16612;SDS011;8419;52.358;9.752;2022-10-24T00:20:27;2.28;;;1.62;;
16612;SDS011;8419;52.358;9.752;2022-10-24T00:23:13;4.68;;;1.40;;
16612;SDS011;8419;52.358;9.752;2022-10-24T00:25:58;3.30;;;1.70;;
16612;SDS011;8419;52.358;9.752;2022-10-24T00:28:44;3.67;;;1.48;;
16612;SDS011;8419;52.358;9.752;2022-10-24T00:31:30;2.75;;;1.33;;
16612;SDS011;8419;52.358;9.752;2022-10-24T00:34:16;2.83;;;1.70;;
16612;SDS011;8419;52.358;9.752;2022-10-24T00:37:02;2.30;;;1.40;;
16612;SDS011;8419;52.358;9.752;2022-10-24T00:39:48;2.25;;;1.40;;
16612;SDS011;8419;52.358;9.752;2022-10-24T00:42:34;4.72;;;1.90;;
16612;SDS011;8419;52.358;9.752;2022-10-24T00:45:40;3.67;;;1.50;;
16612;SDS011;8419;52.358;9.752;2022-10-24T00:48:30;2.40;;;1.17;;
16612;SDS011;8419;52.358;9.752;2022-10-24T00:51:19;2.90;;;1.67;;
16612;SDS011;8419;52.358;9.752;2022-10-24T00:54:09;3.80;;;1.52;;
16612;SDS011;8419;52.358;9.752;2022-10-24T00:56:59;3.58;;;1.90;;
16612;SDS011;8419;52.358;9.752;2022-10-24T00:59:50;3.92;;;1.90;;
16612;SDS011;8419;52.358;9.752;2022-10-24T01:02:40;4.03;;;2.00;;
16612;SDS011;8419;52.358;9.752;2022-10-24T01:05:27;3.67;;;1.70;;
16612;SDS011;8419;52.358;9.752;2022-10-24T01:08:21;5.80;;;1.98;;
16612;SDS011;8419;52.358;9.752;2022-10-24T01:11:19;2.17;;;1.60;;
16612;SDS011;8419;52.358;9.752;2022-10-24T01:14:20;4.12;;;1.85;;
16612;SDS011;8419;52.358;9.752;2022-10-24T01:17:16;6.93;;;1.87;;
16612;SDS011;8419;52.358;9.752;2022-10-24T01:20:24;3.80;;;1.90;;
16612;SDS011;8419;52.358;9.752;2022-10-24T01:23:39;5.97;;;2.00;;
16612;SDS011;8419;52.358;9.752;2022-10-24T01:26:48;2.87;;;1.87;;
16612;SDS011;8419;52.358;9.752;2022-10-24T01:29:46;4.22;;;2.20;;
16612;SDS011;8419;52.358;9.752;2022-10-24T01:32:38;3.15;;;1.50;;
16612;SDS011;8419;52.358;9.752;2022-10-24T01:35:32;2.58;;;1.58;;
16612;SDS011;8419;52.358;9.752;2022-10-24T01:38:25;4.65;;;1.80;;
16612;SDS011;8419;52.358;9.752;2022-10-24T01:41:16;4.65;;;1.90;;
16612;SDS011;8419;52.358;9.752;2022-10-24T01:44:05;2.03;;;1.75;;
16612;SDS011;8419;52.358;9.752;2022-10-24T01:46:55;6.93;;;2.30;;
16612;SDS011;8419;52.358;9.752;2022-10-24T01:49:51;3.75;;;2.20;;
16612;SDS011;8419;52.358;9.752;2022-10-24T01:52:41;4.62;;;1.83;;
16612;SDS011;8419;52.358;9.752;2022-10-24T01:55:29;4.40;;;1.85;;
16612;SDS011;8419;52.358;9.752;2022-10-24T01:58:16;2.95;;;1.95;;
16612;SDS011;8419;52.358;9.752;2022-10-24T02:01:03;4.12;;;1.90;;
16612;SDS011;8419;52.358;9.752;2022-10-24T02:03:53;4.03;;;2.12;;
16612;SDS011;8419;52.358;9.752;2022-10-24T02:06:41;2.50;;;2.05;;
16612;SDS011;8419;52.358;9.752;2022-10-24T02:09:28;5.25;;;2.40;;
16612;SDS011;8419;52.358;9.752;2022-10-24T02:12:16;5.47;;;2.20;;
16612;SDS011;8419;52.358;9.752;2022-10-24T02:15:05;3.70;;;2.08;;
16612;SDS011;8419;52.358;9.752;2022-10-24T02:17:56;4.35;;;1.92;;
16612;SDS011;8419;52.358;9.752;2022-10-24T02:20:45;4.65;;;2.10;;
16612;SDS011;8419;52.358;9.752;2022-10-24T02:23:38;10.30;;;2.22;;
16612;SDS011;8419;52.358;9.752;2022-10-24T02:26:30;2.53;;;1.90;;
16612;SDS011;8419;52.358;9.752;2022-10-24T02:29:23;3.83;;;1.70;;
16612;SDS011;8419;52.358;9.752;2022-10-24T02:32:12;2.72;;;2.17;;
16612;SDS011;8419;52.358;9.752;2022-10-24T02:35:03;3.92;;;2.10;;
16612;SDS011;8419;52.358;9.752;2022-10-24T02:37:56;2.60;;;1.50;;
16612;SDS011;8419;52.358;9.752;2022-10-24T02:40:43;3.37;;;1.65;;
16612;SDS011;8419;52.358;9.752;2022-10-24T02:43:32;3.17;;;2.37;;
16612;SDS011;8419;52.358;9.752;2022-10-24T02:46:19;4.65;;;2.10;;
16612;SDS011;8419;52.358;9.752;2022-10-24T02:49:05;6.37;;;2.55;;
16612;SDS011;8419;52.358;9.752;2022-10-24T02:51:51;2.47;;;1.92;;
16612;SDS011;8419;52.358;9.752;2022-10-24T02:54:37;2.67;;;1.80;;
16612;SDS011;8419;52.358;9.752;2022-10-24T02:57:22;4.25;;;2.05;;
16612;SDS011;8419;52.358;9.752;2022-10-24T03:00:10;3.30;;;2.03;;
16612;SDS011;8419;52.358;9.752;2022-10-24T03:02:57;9.60;;;1.98;;
16612;SDS011;8419;52.358;9.752;2022-10-24T03:05:43;5.07;;;1.83;;
16612;SDS011;8419;52.358;9.752;2022-10-24T03:08:28;3.60;;;1.90;;
16612;SDS011;8419;52.358;9.752;2022-10-24T03:11:13;3.17;;;1.85;;
16612;SDS011;8419;52.358;9.752;2022-10-24T03:13:59;3.28;;;1.37;;
16612;SDS011;8419;52.358;9.752;2022-10-24T03:16:45;3.90;;;1.87;;
16612;SDS011;8419;52.358;9.752;2022-10-24T03:19:30;5.65;;;2.15;;
16612;SDS011;8419;52.358;9.752;2022-10-24T03:22:16;5.97;;;2.28;;
16612;SDS011;8419;52.358;9.752;2022-10-24T03:25:02;3.35;;;2.10;;
16612;SDS011;8419;52.358;9.752;2022-10-24T03:27:49;7.53;;;2.17;;
16612;SDS011;8419;52.358;9.752;2022-10-24T03:30:34;4.75;;;1.95;;
16612;SDS011;8419;52.358;9.752;2022-10-24T03:33:20;3.17;;;1.98;;
16612;SDS011;8419;52.358;9.752;2022-10-24T03:36:06;5.22;;;2.37;;
16612;SDS011;8419;52.358;9.752;2022-10-24T03:38:52;6.20;;;2.42;;
16612;SDS011;8419;52.358;9.752;2022-10-24T03:41:38;3.67;;;2.22;;
16612;SDS011;8419;52.358;9.752;2022-10-24T03:44:24;3.62;;;1.85;;
16612;SDS011;8419;52.358;9.752;2022-10-24T03:47:09;6.22;;;2.83;;
16612;SDS011;8419;52.358;9.752;2022-10-24T03:49:56;5.53;;;2.97;;
16612;SDS011;8419;52.358;9.752;2022-10-24T03:52:41;4.72;;;2.37;;
16612;SDS011;8419;52.358;9.752;2022-10-24T03:55:27;4.35;;;2.25;;
16612;SDS011;8419;52.358;9.752;2022-10-24T03:58:13;8.10;;;2.55;;
16612;SDS011;8419;52.358;9.752;2022-10-24T04:00:59;5.30;;;2.45;;
16612;SDS011;8419;52.358;9.752;2022-10-24T04:03:45;5.78;;;2.67;;
16612;SDS011;8419;52.358;9.752;2022-10-24T04:06:31;6.85;;;2.62;;
16612;SDS011;8419;52.358;9.752;2022-10-24T04:09:17;4.12;;;2.30;;
16612;SDS011;8419;52.358;9.752;2022-10-24T04:12:03;5.65;;;2.45;;
16612;SDS011;8419;52.358;9.752;2022-10-24T04:14:49;5.25;;;2.42;;
16612;SDS011;8419;52.358;9.752;2022-10-24T04:17:35;2.97;;;2.15;;
16612;SDS011;8419;52.358;9.752;2022-10-24T04:20:21;8.93;;;3.08;;
16612;SDS011;8419;52.358;9.752;2022-10-24T04:23:06;6.22;;;2.60;;
16612;SDS011;8419;52.358;9.752;2022-10-24T04:25:52;4.93;;;2.55;;
16612;SDS011;8419;52.358;9.752;2022-10-24T04:28:38;9.57;;;2.67;;
16612;SDS011;8419;52.358;9.752;2022-10-24T04:31:23;4.65;;;2.60;;
16612;SDS011;8419;52.358;9.752;2022-10-24T04:34:09;5.55;;;2.65;;
16612;SDS011;8419;52.358;9.752;2022-10-24T04:36:55;5.87;;;2.58;;
16612;SDS011;8419;52.358;9.752;2022-10-24T04:39:40;5.87;;;2.40;;
16612;SDS011;8419;52.358;9.752;2022-10-24T04:42:26;6.18;;;2.95;;
16612;SDS011;8419;52.358;9.752;2022-10-24T04:45:12;7.32;;;2.62;;
16612;SDS011;8419;52.358;9.752;2022-10-24T04:47:57;4.22;;;2.50;;
16612;SDS011;8419;52.358;9.752;2022-10-24T04:50:43;9.13;;;2.50;;
16612;SDS011;8419;52.358;9.752;2022-10-24T04:53:29;7.95;;;2.87;;
16612;SDS011;8419;52.358;9.752;2022-10-24T04:56:15;4.82;;;2.50;;
16612;SDS011;8419;52.358;9.752;2022-10-24T04:59:01;6.87;;;2.50;;
16612;SDS011;8419;52.358;9.752;2022-10-24T05:01:46;8.82;;;2.60;;
16612;SDS011;8419;52.358;9.752;2022-10-24T05:04:32;10.45;;;3.30;;
16612;SDS011;8419;52.358;9.752;2022-10-24T05:07:18;6.80;;;2.97;;
16612;SDS011;8419;52.358;9.752;2022-10-24T05:10:05;8.05;;;2.47;;
16612;SDS011;8419;52.358;9.752;2022-10-24T05:12:51;4.15;;;2.47;;
16612;SDS011;8419;52.358;9.752;2022-10-24T05:15:37;4.57;;;2.55;;
16612;SDS011;8419;52.358;9.752;2022-10-24T05:18:23;3.40;;;2.17;;
16612;SDS011;8419;52.358;9.752;2022-10-24T05:21:08;6.55;;;2.40;;
16612;SDS011;8419;52.358;9.752;2022-10-24T05:23:54;6.72;;;2.30;;
16612;SDS011;8419;52.358;9.752;2022-10-24T05:26:41;4.07;;;2.10;;
16612;SDS011;8419;52.358;9.752;2022-10-24T05:29:26;7.95;;;2.37;;
16612;SDS011;8419;52.358;9.752;2022-10-24T05:32:12;6.43;;;2.53;;
16612;SDS011;8419;52.358;9.752;2022-10-24T05:34:58;8.10;;;2.50;;
16612;SDS011;8419;52.358;9.752;2022-10-24T05:37:43;5.82;;;2.60;;
16612;SDS011;8419;52.358;9.752;2022-10-24T05:40:29;5.47;;;2.28;;
16612;SDS011;8419;52.358;9.752;2022-10-24T05:43:15;6.85;;;3.00;;
16612;SDS011;8419;52.358;9.752;2022-10-24T05:46:01;4.50;;;2.28;;
16612;SDS011;8419;52.358;9.752;2022-10-24T05:48:46;5.68;;;2.53;;
16612;SDS011;8419;52.358;9.752;2022-10-24T05:51:32;5.70;;;2.35;;
16612;SDS011;8419;52.358;9.752;2022-10-24T05:54:18;4.55;;;2.30;;
16612;SDS011;8419;52.358;9.752;2022-10-24T05:57:04;10.05;;;2.58;;
16612;SDS011;8419;52.358;9.752;2022-10-24T05:59:49;6.20;;;2.75;;
16612;SDS011;8419;52.358;9.752;2022-10-24T06:02:35;7.57;;;2.70;;
16612;SDS011;8419;52.358;9.752;2022-10-24T06:05:20;6.90;;;2.20;;
16612;SDS011;8419;52.358;9.752;2022-10-24T06:08:06;7.40;;;3.25;;
16612;SDS011;8419;52.358;9.752;2022-10-24T06:10:51;5.40;;;2.30;;
16612;SDS011;8419;52.358;9.752;2022-10-24T06:13:37;6.82;;;2.37;;
16612;SDS011;8419;52.358;9.752;2022-10-24T06:16:23;6.70;;;2.20;;
16612;SDS011;8419;52.358;9.752;2022-10-24T06:19:10;5.97;;;2.33;;
16612;SDS011;8419;52.358;9.752;2022-10-24T06:21:56;13.00;;;3.20;;
16612;SDS011;8419;52.358;9.752;2022-10-24T06:24:42;12.23;;;3.17;;
16612;SDS011;8419;52.358;9.752;2022-10-24T06:27:28;8.25;;;3.28;;
16612;SDS011;8419;52.358;9.752;2022-10-24T06:30:14;6.60;;;2.28;;
16612;SDS011;8419;52.358;9.752;2022-10-24T06:33:00;6.50;;;2.40;;
16612;SDS011;8419;52.358;9.752;2022-10-24T06:35:47;3.90;;;2.20;;
16612;SDS011;8419;52.358;9.752;2022-10-24T06:38:32;9.52;;;3.87;;
16612;SDS011;8419;52.358;9.752;2022-10-24T06:41:18;20.65;;;8.30;;
16612;SDS011;8419;52.358;9.752;2022-10-24T06:44:05;6.85;;;2.70;;
16612;SDS011;8419;52.358;9.752;2022-10-24T06:46:51;8.45;;;2.10;;
16612;SDS011;8419;52.358;9.752;2022-10-24T06:49:36;2.83;;;1.60;;
16612;SDS011;8419;52.358;9.752;2022-10-24T06:52:22;7.35;;;2.28;;
16612;SDS011;8419;52.358;9.752;2022-10-24T06:55:09;7.53;;;2.50;;
16612;SDS011;8419;52.358;9.752;2022-10-24T06:57:55;10.15;;;2.47;;
16612;SDS011;8419;52.358;9.752;2022-10-24T07:00:41;5.85;;;2.00;;
16612;SDS011;8419;52.358;9.752;2022-10-24T07:03:26;6.05;;;2.55;;
16612;SDS011;8419;52.358;9.752;2022-10-24T07:06:14;6.25;;;2.75;;
16612;SDS011;8419;52.358;9.752;2022-10-24T07:09:02;6.10;;;2.08;;
16612;SDS011;8419;52.358;9.752;2022-10-24T07:11:49;4.20;;;1.90;;
16612;SDS011;8419;52.358;9.752;2022-10-24T07:14:34;6.22;;;2.10;;
16612;SDS011;8419;52.358;9.752;2022-10-24T07:17:20;8.52;;;1.85;;
16612;SDS011;8419;52.358;9.752;2022-10-24T07:20:06;7.97;;;2.20;;
16612;SDS011;8419;52.358;9.752;2022-10-24T07:22:53;6.97;;;2.50;;
16612;SDS011;8419;52.358;9.752;2022-10-24T07:25:39;3.78;;;1.55;;
16612;SDS011;8419;52.358;9.752;2022-10-24T07:28:25;6.18;;;2.30;;
16612;SDS011;8419;52.358;9.752;2022-10-24T07:31:11;5.37;;;2.45;;
16612;SDS011;8419;52.358;9.752;2022-10-24T07:33:58;6.22;;;2.47;;
16612;SDS011;8419;52.358;9.752;2022-10-24T07:36:45;4.20;;;1.98;;
16612;SDS011;8419;52.358;9.752;2022-10-24T07:39:31;5.32;;;2.17;;
16612;SDS011;8419;52.358;9.752;2022-10-24T07:42:17;2.85;;;1.90;;
16612;SDS011;8419;52.358;9.752;2022-10-24T07:45:03;7.22;;;2.22;;
16612;SDS011;8419;52.358;9.752;2022-10-24T07:47:50;6.50;;;2.25;;
16612;SDS011;8419;52.358;9.752;2022-10-24T07:50:40;5.22;;;1.80;;
16612;SDS011;8419;52.358;9.752;2022-10-24T07:53:28;7.53;;;2.12;;
16612;SDS011;8419;52.358;9.752;2022-10-24T07:56:14;7.72;;;2.22;;
16612;SDS011;8419;52.358;9.752;2022-10-24T07:59:01;7.15;;;2.20;;
16612;SDS011;8419;52.358;9.752;2022-10-24T08:01:46;4.87;;;2.08;;
16612;SDS011;8419;52.358;9.752;2022-10-24T08:04:32;4.12;;;2.00;;
16612;SDS011;8419;52.358;9.752;2022-10-24T08:07:17;10.80;;;2.15;;
16612;SDS011;8419;52.358;9.752;2022-10-24T08:10:04;8.25;;;2.17;;
16612;SDS011;8419;52.358;9.752;2022-10-24T08:12:53;5.62;;;1.85;;
16612;SDS011;8419;52.358;9.752;2022-10-24T08:15:38;7.65;;;1.87;;
16612;SDS011;8419;52.358;9.752;2022-10-24T08:18:24;4.93;;;1.87;;
16612;SDS011;8419;52.358;9.752;2022-10-24T08:21:11;3.70;;;1.90;;
16612;SDS011;8419;52.358;9.752;2022-10-24T08:23:58;7.75;;;2.15;;
16612;SDS011;8419;52.358;9.752;2022-10-24T08:26:44;3.12;;;1.90;;
16612;SDS011;8419;52.358;9.752;2022-10-24T08:29:30;5.40;;;2.58;;
16612;SDS011;8419;52.358;9.752;2022-10-24T08:32:16;3.33;;;1.80;;
16612;SDS011;8419;52.358;9.752;2022-10-24T08:35:02;5.00;;;1.65;;
16612;SDS011;8419;52.358;9.752;2022-10-24T08:37:48;5.85;;;2.20;;
16612;SDS011;8419;52.358;9.752;2022-10-24T08:40:33;3.65;;;1.62;;
16612;SDS011;8419;52.358;9.752;2022-10-24T08:43:19;7.07;;;2.08;;
16612;SDS011;8419;52.358;9.752;2022-10-24T08:46:07;6.97;;;2.10;;
16612;SDS011;8419;52.358;9.752;2022-10-24T08:49:05;5.22;;;1.77;;
16612;SDS011;8419;52.358;9.752;2022-10-24T08:52:02;6.93;;;1.83;;
16612;SDS011;8419;52.358;9.752;2022-10-24T08:54:55;7.60;;;1.37;;
16612;SDS011;8419;52.358;9.752;2022-10-24T08:57:44;4.53;;;1.70;;
16612;SDS011;8419;52.358;9.752;2022-10-24T09:00:37;5.18;;;1.50;;
16612;SDS011;8419;52.358;9.752;2022-10-24T09:03:26;2.35;;;1.40;;
16612;SDS011;8419;52.358;9.752;2022-10-24T09:06:17;3.30;;;1.45;;
16612;SDS011;8419;52.358;9.752;2022-10-24T09:09:09;6.72;;;1.90;;
16612;SDS011;8419;52.358;9.752;2022-10-24T09:12:02;4.28;;;1.48;;
16612;SDS011;8419;52.358;9.752;2022-10-24T09:14:53;4.40;;;1.95;;
16612;SDS011;8419;52.358;9.752;2022-10-24T09:17:41;8.70;;;1.90;;
16612;SDS011;8419;52.358;9.752;2022-10-24T09:20:29;2.20;;;1.65;;
16612;SDS011;8419;52.358;9.752;2022-10-24T09:23:17;3.12;;;1.40;;
16612;SDS011;8419;52.358;9.752;2022-10-24T09:26:05;4.25;;;1.73;;
16612;SDS011;8419;52.358;9.752;2022-10-24T09:28:57;7.70;;;1.60;;
16612;SDS011;8419;52.358;9.752;2022-10-24T09:31:42;4.45;;;1.70;;
16612;SDS011;8419;52.358;9.752;2022-10-24T09:34:28;7.40;;;1.83;;
16612;SDS011;8419;52.358;9.752;2022-10-24T09:37:34;5.40;;;1.70;;
16612;SDS011;8419;52.358;9.752;2022-10-24T09:40:22;7.05;;;1.60;;
16612;SDS011;8419;52.358;9.752;2022-10-24T09:43:13;5.57;;;1.73;;
16612;SDS011;8419;52.358;9.752;2022-10-24T09:46:02;5.22;;;1.40;;
16612;SDS011;8419;52.358;9.752;2022-10-24T09:48:52;4.78;;;1.60;;
16612;SDS011;8419;52.358;9.752;2022-10-24T09:51:40;4.82;;;1.40;;
16612;SDS011;8419;52.358;9.752;2022-10-24T09:54:29;3.90;;;1.27;;
16612;SDS011;8419;52.358;9.752;2022-10-24T09:57:15;4.72;;;1.87;;
16612;SDS011;8419;52.358;9.752;2022-10-24T10:00:02;6.80;;;1.55;;
16612;SDS011;8419;52.358;9.752;2022-10-24T10:02:58;4.15;;;1.50;;
16612;SDS011;8419;52.358;9.752;2022-10-24T10:05:46;5.00;;;1.70;;
16612;SDS011;8419;52.358;9.752;2022-10-24T10:08:33;3.42;;;1.02;;
16612;SDS011;8419;52.358;9.752;2022-10-24T10:11:23;2.95;;;1.30;;
16612;SDS011;8419;52.358;9.752;2022-10-24T10:14:19;3.85;;;1.40;;
16612;SDS011;8419;52.358;9.752;2022-10-24T10:17:10;4.40;;;1.30;;
16612;SDS011;8419;52.358;9.752;2022-10-24T10:20:05;4.47;;;1.42;;
16612;SDS011;8419;52.358;9.752;2022-10-24T10:23:16;4.07;;;1.37;;
16612;SDS011;8419;52.358;9.752;2022-10-24T10:26:11;2.83;;;1.17;;
16612;SDS011;8419;52.358;9.752;2022-10-24T10:29:01;2.70;;;1.45;;
16612;SDS011;8419;52.358;9.752;2022-10-24T10:31:49;4.47;;;1.75;;
16612;SDS011;8419;52.358;9.752;2022-10-24T10:34:41;4.07;;;1.30;;
16612;SDS011;8419;52.358;9.752;2022-10-24T10:37:31;6.57;;;1.73;;
16612;SDS011;8419;52.358;9.752;2022-10-24T10:40:25;5.50;;;1.48;;
16612;SDS011;8419;52.358;9.752;2022-10-24T10:43:23;2.87;;;1.52;;
16612;SDS011;8419;52.358;9.752;2022-10-24T10:46:18;7.93;;;1.55;;
16612;SDS011;8419;52.358;9.752;2022-10-24T10:49:15;2.37;;;1.17;;
16612;SDS011;8419;52.358;9.752;2022-10-24T10:52:09;4.20;;;1.50;;
16612;SDS011;8419;52.358;9.752;2022-10-24T10:55:14;2.87;;;0.85;;
16612;SDS011;8419;52.358;9.752;2022-10-24T10:58:11;6.97;;;1.42;;
16612;SDS011;8419;52.358;9.752;2022-10-24T11:01:10;13.52;;;1.75;;
16612;SDS011;8419;52.358;9.752;2022-10-24T11:04:05;3.87;;;1.50;;
16612;SDS011;8419;52.358;9.752;2022-10-24T11:06:59;4.65;;;1.58;;
16612;SDS011;8419;52.358;9.752;2022-10-24T11:09:53;6.07;;;1.20;;
16612;SDS011;8419;52.358;9.752;2022-10-24T11:12:43;3.05;;;0.90;;
16612;SDS011;8419;52.358;9.752;2022-10-24T11:15:30;7.72;;;1.70;;
16612;SDS011;8419;52.358;9.752;2022-10-24T11:18:20;3.33;;;0.80;;
16612;SDS011;8419;52.358;9.752;2022-10-24T11:21:10;4.40;;;1.58;;
16612;SDS011;8419;52.358;9.752;2022-10-24T11:23:59;5.68;;;1.02;;
16612;SDS011;8419;52.358;9.752;2022-10-24T11:26:51;3.20;;;1.05;;
16612;SDS011;8419;52.358;9.752;2022-10-24T11:29:44;4.03;;;1.08;;
16612;SDS011;8419;52.358;9.752;2022-10-24T11:32:38;3.75;;;1.15;;
16612;SDS011;8419;52.358;9.752;2022-10-24T11:35:30;2.47;;;1.17;;
16612;SDS011;8419;52.358;9.752;2022-10-24T11:38:17;4.45;;;1.20;;
16612;SDS011;8419;52.358;9.752;2022-10-24T11:44:33;3.83;;;0.90;;
16612;SDS011;8419;52.358;9.752;2022-10-24T11:47:32;3.53;;;0.80;;
16612;SDS011;8419;52.358;9.752;2022-10-24T11:50:27;2.22;;;0.68;;
16612;SDS011;8419;52.358;9.752;2022-10-24T11:53:35;1.55;;;0.80;;
16612;SDS011;8419;52.358;9.752;2022-10-24T11:56:30;4.50;;;0.80;;
16612;SDS011;8419;52.358;9.752;2022-10-24T11:59:23;3.35;;;0.62;;
16612;SDS011;8419;52.358;9.752;2022-10-24T12:02:31;2.17;;;0.73;;
16612;SDS011;8419;52.358;9.752;2022-10-24T12:05:49;2.50;;;0.80;;
16612;SDS011;8419;52.358;9.752;2022-10-24T12:08:56;0.85;;;0.65;;
16612;SDS011;8419;52.358;9.752;2022-10-24T12:12:13;3.53;;;1.00;;
16612;SDS011;8419;52.358;9.752;2022-10-24T12:18:25;1.55;;;0.70;;
16612;SDS011;8419;52.358;9.752;2022-10-24T12:21:15;2.22;;;1.17;;
16612;SDS011;8419;52.358;9.752;2022-10-24T12:24:04;3.75;;;0.90;;
16612;SDS011;8419;52.358;9.752;2022-10-24T12:27:03;2.95;;;1.08;;
16612;SDS011;8419;52.358;9.752;2022-10-24T12:29:59;2.53;;;0.80;;
16612;SDS011;8419;52.358;9.752;2022-10-24T12:32:50;2.70;;;0.80;;
16612;SDS011;8419;52.358;9.752;2022-10-24T12:35:45;2.75;;;0.85;;
16612;SDS011;8419;52.358;9.752;2022-10-24T12:41:55;5.47;;;0.90;;
16612;SDS011;8419;52.358;9.752;2022-10-24T12:44:43;3.47;;;0.73;;
16612;SDS011;8419;52.358;9.752;2022-10-24T12:47:38;1.65;;;0.50;;
16612;SDS011;8419;52.358;9.752;2022-10-24T12:54:11;0.90;;;0.40;;
16612;SDS011;8419;52.358;9.752;2022-10-24T12:57:19;3.83;;;1.00;;
16612;SDS011;8419;52.358;9.752;2022-10-24T13:00:21;1.33;;;0.80;;
16612;SDS011;8419;52.358;9.752;2022-10-24T13:03:18;5.05;;;1.30;;
16612;SDS011;8419;52.358;9.752;2022-10-24T13:06:15;2.80;;;0.68;;
16612;SDS011;8419;52.358;9.752;2022-10-24T13:09:13;5.75;;;0.88;;
16612;SDS011;8419;52.358;9.752;2022-10-24T13:12:14;3.25;;;0.98;;
16612;SDS011;8419;52.358;9.752;2022-10-24T13:15:25;2.87;;;0.85;;
16612;SDS011;8419;52.358;9.752;2022-10-24T13:18:27;3.03;;;0.70;;
16612;SDS011;8419;52.358;9.752;2022-10-24T13:21:26;3.28;;;0.93;;
16612;SDS011;8419;52.358;9.752;2022-10-24T13:24:21;2.60;;;0.95;;
16612;SDS011;8419;52.358;9.752;2022-10-24T13:27:22;2.33;;;0.80;;
16612;SDS011;8419;52.358;9.752;2022-10-24T13:33:31;2.08;;;0.60;;
16612;SDS011;8419;52.358;9.752;2022-10-24T13:36:25;4.22;;;0.88;;
16612;SDS011;8419;52.358;9.752;2022-10-24T13:39:16;2.30;;;0.52;;
16612;SDS011;8419;52.358;9.752;2022-10-24T13:42:06;4.03;;;0.93;;
16612;SDS011;8419;52.358;9.752;2022-10-24T13:45:05;3.40;;;0.88;;
16612;SDS011;8419;52.358;9.752;2022-10-24T13:48:06;1.65;;;0.85;;
16612;SDS011;8419;52.358;9.752;2022-10-24T13:51:02;2.28;;;0.90;;
16612;SDS011;8419;52.358;9.752;2022-10-24T13:53:52;2.17;;;0.90;;
16612;SDS011;8419;52.358;9.752;2022-10-24T13:56:42;2.30;;;1.10;;
16612;SDS011;8419;52.358;9.752;2022-10-24T13:59:31;2.42;;;0.90;;
16612;SDS011;8419;52.358;9.752;2022-10-24T14:02:21;4.00;;;1.00;;
16612;SDS011;8419;52.358;9.752;2022-10-24T14:05:17;5.68;;;1.17;;
16612;SDS011;8419;52.358;9.752;2022-10-24T14:08:07;7.18;;;0.93;;
16612;SDS011;8419;52.358;9.752;2022-10-24T14:10:53;1.25;;;0.73;;
16612;SDS011;8419;52.358;9.752;2022-10-24T14:13:43;3.85;;;0.82;;
16612;SDS011;8419;52.358;9.752;2022-10-24T14:16:31;3.55;;;0.90;;
16612;SDS011;8419;52.358;9.752;2022-10-24T14:19:20;3.25;;;0.57;;
16612;SDS011;8419;52.358;9.752;2022-10-24T14:22:16;1.12;;;0.55;;
16612;SDS011;8419;52.358;9.752;2022-10-24T14:25:05;1.48;;;0.60;;
16612;SDS011;8419;52.358;9.752;2022-10-24T14:28:10;1.92;;;1.23;;
16612;SDS011;8419;52.358;9.752;2022-10-24T14:31:05;1.65;;;0.37;;
16612;SDS011;8419;52.358;9.752;2022-10-24T14:33:53;2.87;;;0.60;;
16612;SDS011;8419;52.358;9.752;2022-10-24T14:36:39;2.05;;;0.90;;
16612;SDS011;8419;52.358;9.752;2022-10-24T14:39:28;6.15;;;1.10;;
16612;SDS011;8419;52.358;9.752;2022-10-24T14:42:15;2.87;;;0.88;;
16612;SDS011;8419;52.358;9.752;2022-10-24T14:45:19;2.08;;;0.90;;
16612;SDS011;8419;52.358;9.752;2022-10-24T14:48:13;2.08;;;0.90;;
16612;SDS011;8419;52.358;9.752;2022-10-24T14:51:07;3.40;;;0.73;;
16612;SDS011;8419;52.358;9.752;2022-10-24T14:53:59;2.53;;;0.88;;
16612;SDS011;8419;52.358;9.752;2022-10-24T14:56:45;3.05;;;0.75;;
16612;SDS011;8419;52.358;9.752;2022-10-24T14:59:33;3.33;;;0.70;;
16612;SDS011;8419;52.358;9.752;2022-10-24T15:02:22;2.53;;;0.90;;
16612;SDS011;8419;52.358;9.752;2022-10-24T15:05:27;2.20;;;0.75;;
16612;SDS011;8419;52.358;9.752;2022-10-24T15:08:22;5.40;;;1.15;;
16612;SDS011;8419;52.358;9.752;2022-10-24T15:11:17;1.17;;;0.75;;
16612;SDS011;8419;52.358;9.752;2022-10-24T15:17:24;5.60;;;1.10;;
16612;SDS011;8419;52.358;9.752;2022-10-24T15:20:13;3.58;;;0.98;;
16612;SDS011;8419;52.358;9.752;2022-10-24T15:23:02;5.20;;;0.90;;
16612;SDS011;8419;52.358;9.752;2022-10-24T15:25:56;1.85;;;1.00;;
16612;SDS011;8419;52.358;9.752;2022-10-24T15:28:55;4.82;;;0.90;;
16612;SDS011;8419;52.358;9.752;2022-10-24T15:31:50;6.18;;;0.80;;
16612;SDS011;8419;52.358;9.752;2022-10-24T15:34:38;3.28;;;0.75;;
16612;SDS011;8419;52.358;9.752;2022-10-24T15:37:25;2.37;;;0.75;;
16612;SDS011;8419;52.358;9.752;2022-10-24T15:40:14;3.78;;;1.15;;
16612;SDS011;8419;52.358;9.752;2022-10-24T15:43:03;2.55;;;1.05;;
16612;SDS011;8419;52.358;9.752;2022-10-24T15:45:49;1.80;;;0.73;;
16612;SDS011;8419;52.358;9.752;2022-10-24T15:48:40;1.62;;;0.60;;
16612;SDS011;8419;52.358;9.752;2022-10-24T15:51:27;7.05;;;0.90;;
16612;SDS011;8419;52.358;9.752;2022-10-24T15:54:16;2.65;;;1.20;;
16612;SDS011;8419;52.358;9.752;2022-10-24T15:57:03;3.20;;;1.20;;
16612;SDS011;8419;52.358;9.752;2022-10-24T15:59:49;4.68;;;1.05;;
16612;SDS011;8419;52.358;9.752;2022-10-24T16:02:34;4.60;;;0.90;;
16612;SDS011;8419;52.358;9.752;2022-10-24T16:05:24;2.05;;;0.68;;
16612;SDS011;8419;52.358;9.752;2022-10-24T16:08:14;4.25;;;1.15;;
16612;SDS011;8419;52.358;9.752;2022-10-24T16:11:02;5.43;;;0.90;;
16612;SDS011;8419;52.358;9.752;2022-10-24T16:13:47;1.83;;;0.75;;
16612;SDS011;8419;52.358;9.752;2022-10-24T16:16:33;2.65;;;0.90;;
16612;SDS011;8419;52.358;9.752;2022-10-24T16:19:21;6.22;;;0.90;;
16612;SDS011;8419;52.358;9.752;2022-10-24T16:22:12;2.80;;;1.00;;
16612;SDS011;8419;52.358;9.752;2022-10-24T16:25:02;3.20;;;0.82;;
16612;SDS011;8419;52.358;9.752;2022-10-24T16:27:50;5.25;;;1.50;;
16612;SDS011;8419;52.358;9.752;2022-10-24T16:30:37;2.45;;;0.90;;
16612;SDS011;8419;52.358;9.752;2022-10-24T16:33:26;2.28;;;0.55;;
16612;SDS011;8419;52.358;9.752;2022-10-24T16:36:13;6.47;;;1.02;;
16612;SDS011;8419;52.358;9.752;2022-10-24T16:39:00;3.45;;;1.00;;
16612;SDS011;8419;52.358;9.752;2022-10-24T16:41:46;4.85;;;1.00;;
16612;SDS011;8419;52.358;9.752;2022-10-24T16:44:32;4.82;;;1.10;;
16612;SDS011;8419;52.358;9.752;2022-10-24T16:47:20;2.33;;;0.85;;
16612;SDS011;8419;52.358;9.752;2022-10-24T16:50:06;2.40;;;0.80;;
16612;SDS011;8419;52.358;9.752;2022-10-24T16:52:57;2.30;;;0.75;;
16612;SDS011;8419;52.358;9.752;2022-10-24T16:55:48;6.55;;;1.00;;
16612;SDS011;8419;52.358;9.752;2022-10-24T16:58:37;5.78;;;1.02;;
16612;SDS011;8419;52.358;9.752;2022-10-24T17:01:24;10.52;;;1.70;;
16612;SDS011;8419;52.358;9.752;2022-10-24T17:04:11;3.17;;;0.65;;
16612;SDS011;8419;52.358;9.752;2022-10-24T17:06:56;4.18;;;1.23;;
16612;SDS011;8419;52.358;9.752;2022-10-24T17:09:42;5.47;;;1.10;;
16612;SDS011;8419;52.358;9.752;2022-10-24T17:12:29;3.12;;;0.90;;
16612;SDS011;8419;52.358;9.752;2022-10-24T17:15:16;2.80;;;1.02;;
16612;SDS011;8419;52.358;9.752;2022-10-24T17:18:04;2.45;;;1.10;;
16612;SDS011;8419;52.358;9.752;2022-10-24T17:20:51;3.75;;;0.77;;
16612;SDS011;8419;52.358;9.752;2022-10-24T17:23:43;6.03;;;1.10;;
16612;SDS011;8419;52.358;9.752;2022-10-24T17:26:29;3.83;;;1.10;;
16612;SDS011;8419;52.358;9.752;2022-10-24T17:29:16;3.37;;;0.70;;
16612;SDS011;8419;52.358;9.752;2022-10-24T17:32:11;1.92;;;1.05;;
16612;SDS011;8419;52.358;9.752;2022-10-24T17:34:58;2.28;;;0.90;;
16612;SDS011;8419;52.358;9.752;2022-10-24T17:37:51;2.08;;;0.82;;